Time;durP1;ratioP1;P1;durP2;ratioP2;P2;SDS_P1;SDS_P2;PMS_P1;PMS_P2;Temp;Humidity;BMP_temperature;BMP_pressure;BME280_temperature;BME280_humidity;BME280_pressure;Samples;Min_cycle;Max_cycle;Signal;HPM_P1;HPM_P2
2023/05/09 00:01:45;;;;;;;16.13;12.20;;;16.40;1.00;;;;;;5117392;28;20186;-74
2023/05/09 00:04:11;;;;;;;17.40;11.30;;;16.40;1.00;;;;;;5117062;28;20253;-74
2023/05/09 00:06:36;;;;;;;14.43;11.00;;;16.40;1.00;;;;;;5116975;28;20487;-74
2023/05/09 00:09:03;;;;;;;17.30;11.13;;;16.40;1.00;;;;;;5119651;27;20186;-74
2023/05/09 00:11:30;;;;;;;17.00;11.20;;;16.40;1.00;;;;;;5128648;27;20215;-74
2023/05/09 00:13:56;;;;;;;13.20;10.63;;;16.40;1.00;;;;;;5098475;28;20384;-74
2023/05/09 00:16:22;;;;;;;13.33;10.50;;;16.40;1.00;;;;;;5117237;28;20493;-74
2023/05/09 00:18:49;;;;;;;15.57;11.80;;;16.40;1.00;;;;;;5117075;28;20393;-79
2023/05/09 00:21:20;;;;;;;14.50;12.13;;;16.40;1.00;;;;;;5116479;28;20426;-80
2023/05/09 00:23:50;;;;;;;14.37;11.27;;;16.40;1.00;;;;;;5116489;28;20819;-79
2023/05/09 00:26:16;;;;;;;13.43;10.57;;;16.40;1.00;;;;;;5116517;27;20436;-73
2023/05/09 00:28:42;;;;;;;15.60;11.23;;;16.40;1.00;;;;;;5116635;27;20396;-74
2023/05/09 00:31:08;;;;;;;13.60;10.80;;;16.40;1.00;;;;;;5116797;28;20536;-74
2023/05/09 00:33:38;;;;;;;17.50;10.73;;;16.40;1.00;;;;;;5116385;28;20206;-74
2023/05/09 00:36:05;;;;;;;15.07;12.30;;;16.40;1.00;;;;;;5125905;27;20581;-74
2023/05/09 00:38:30;;;;;;;17.53;13.27;;;16.40;1.00;;;;;;5134496;27;20434;-73
2023/05/09 00:40:56;;;;;;;18.73;13.97;;;16.40;1.00;;;;;;5118246;27;20462;-74
2023/05/09 00:43:44;;;;;;;23.23;15.20;;;16.40;1.00;;;;;;5116053;28;20233;-79
2023/05/09 00:46:10;;;;;;;17.77;14.33;;;16.40;1.00;;;;;;5098388;28;20184;-74
2023/05/09 00:48:36;;;;;;;22.03;15.40;;;16.40;1.00;;;;;;5115985;28;20393;-74
2023/05/09 00:51:01;;;;;;;21.40;15.07;;;16.40;1.00;;;;;;5097886;28;20449;-74
2023/05/09 00:53:27;;;;;;;19.20;13.97;;;16.30;1.00;;;;;;5115955;28;20539;-74
2023/05/09 00:55:55;;;;;;;20.00;14.10;;;16.30;1.00;;;;;;5115983;27;20233;-74
2023/05/09 00:58:21;;;;;;;23.70;15.40;;;16.30;1.00;;;;;;5116048;28;20230;-74
2023/05/09 01:00:50;;;;;;;22.00;16.43;;;16.30;1.00;;;;;;5115201;28;20529;-79
2023/05/09 01:03:17;;;;;;;24.13;16.00;;;16.30;1.00;;;;;;5131659;27;20416;-79
2023/05/09 01:06:20;;;;;;;25.67;17.70;;;16.30;1.00;;;;;;5136580;27;20420;-79
2023/05/09 01:09:07;;;;;;;22.10;16.20;;;16.30;1.00;;;;;;5111652;27;20462;-79
2023/05/09 01:11:51;;;;;;;26.03;16.27;;;16.30;1.00;;;;;;5130681;27;20916;-74
2023/05/09 01:14:25;;;;;;;22.60;16.37;;;16.30;1.00;;;;;;5136230;27;20385;-74
2023/05/09 01:17:18;;;;;;;25.43;16.20;;;16.30;1.00;;;;;;5136578;27;20388;-74
2023/05/09 01:19:51;;;;;;;24.43;16.70;;;16.30;1.00;;;;;;5116809;27;20454;-80
2023/05/09 01:22:25;;;;;;;21.30;16.13;;;16.40;1.00;;;;;;5130554;27;20503;-79
2023/05/09 01:25:14;;;;;;;24.83;15.83;;;16.40;1.00;;;;;;5110057;27;20784;-79
2023/05/09 01:28:17;;;;;;;23.13;15.10;;;16.30;1.00;;;;;;5117408;27;20405;-74
2023/05/09 01:30:45;;;;;;;24.00;16.30;;;16.30;1.00;;;;;;5117452;27;20416;-74
2023/05/09 01:33:16;;;;;;;21.80;15.30;;;16.30;1.00;;;;;;5136599;27;20442;-74
2023/05/09 01:35:48;;;;;;;20.03;14.73;;;16.30;1.00;;;;;;5135004;27;20420;-73
2023/05/09 01:41:54;;;;;;;22.27;16.30;;;16.30;1.00;;;;;;5123094;27;20549;-79
2023/05/09 01:44:36;;;;;;;26.10;17.00;;;16.30;1.00;;;;;;5135560;27;20392;-79
2023/05/09 01:47:10;;;;;;;22.57;15.60;;;16.20;1.00;;;;;;5126367;27;20429;-74
2023/05/09 01:49:38;;;;;;;21.87;15.33;;;16.20;1.00;;;;;;5102010;27;20514;-74
2023/05/09 01:52:08;;;;;;;21.17;15.07;;;16.20;1.00;;;;;;5134500;27;20443;-74
2023/05/09 01:54:35;;;;;;;20.90;14.40;;;16.10;1.00;;;;;;5130955;27;20569;-74
2023/05/09 01:57:56;;;;;;;24.60;15.90;;;16.00;1.00;;;;;;5114874;28;20367;-80
2023/05/09 02:00:46;;;;;;;23.20;15.63;;;15.90;1.00;;;;;;5118384;27;20542;-79
2023/05/09 02:03:12;;;;;;;27.43;16.57;;;15.80;1.00;;;;;;5115030;28;20533;-74
2023/05/09 02:05:40;;;;;;;21.60;15.17;;;15.80;1.00;;;;;;5114792;28;20983;-74
2023/05/09 02:08:07;;;;;;;24.37;15.60;;;15.70;1.00;;;;;;5114649;28;20392;-74
2023/05/09 02:10:34;;;;;;;23.87;16.93;;;15.70;1.00;;;;;;5115430;27;20507;-73
2023/05/09 02:13:00;;;;;;;27.50;15.13;;;15.70;1.00;;;;;;5114528;28;20397;-73
2023/05/09 02:15:27;;;;;;;25.80;16.97;;;15.70;1.00;;;;;;5114591;28;20397;-74
2023/05/09 02:17:53;;;;;;;24.47;16.97;;;15.60;1.00;;;;;;5114830;28;20241;-74
2023/05/09 02:20:19;;;;;;;23.87;17.07;;;15.50;1.00;;;;;;5114463;28;20830;-74
2023/05/09 02:22:50;;;;;;;24.50;17.30;;;15.50;1.00;;;;;;5114471;28;20713;-74
2023/05/09 02:25:17;;;;;;;21.73;15.73;;;15.50;1.00;;;;;;5114343;28;20699;-74
2023/05/09 02:27:58;;;;;;;28.40;16.37;;;15.50;1.00;;;;;;5125086;27;20422;-79
2023/05/09 02:30:51;;;;;;;22.03;15.80;;;15.40;1.00;;;;;;5135066;27;20854;-79
2023/05/09 02:33:17;;;;;;;29.97;16.00;;;15.30;1.00;;;;;;5135601;27;20908;-79
2023/05/09 02:35:51;;;;;;;27.00;18.07;;;15.30;1.00;;;;;;5134943;27;20474;-79
2023/05/09 02:38:21;;;;;;;24.93;17.43;;;15.20;1.00;;;;;;5134622;27;20361;-79
2023/05/09 02:40:47;;;;;;;23.30;15.20;;;15.10;1.00;;;;;;5134775;27;20810;-74
2023/05/09 02:43:14;;;;;;;27.50;16.73;;;15.10;1.00;;;;;;5134919;28;20366;-74
2023/05/09 02:45:39;;;;;;;26.73;16.20;;;15.20;1.00;;;;;;5134371;28;20406;-79
2023/05/09 02:48:20;;;;;;;28.37;16.57;;;15.30;1.00;;;;;;5135490;28;20474;-79
2023/05/09 02:50:50;;;;;;;22.53;15.43;;;15.20;1.00;;;;;;5134374;28;20205;-79
2023/05/09 02:53:50;;;;;;;23.17;15.77;;;15.20;1.00;;;;;;5134627;28;20431;-79
2023/05/09 02:56:26;;;;;;;27.70;15.27;;;15.10;1.00;;;;;;5134085;28;20429;-79
2023/05/09 02:58:52;;;;;;;27.77;15.70;;;15.10;1.00;;;;;;5134488;28;20393;-74
2023/05/09 03:01:20;;;;;;;23.30;16.00;;;15.10;1.00;;;;;;5127352;28;20446;-74
2023/05/09 03:03:46;;;;;;;26.73;17.40;;;15.10;1.00;;;;;;5114340;28;20158;-74
2023/05/09 03:06:13;;;;;;;26.27;16.80;;;15.00;1.00;;;;;;5113947;28;20395;-74
2023/05/09 03:08:38;;;;;;;24.90;15.83;;;15.10;1.00;;;;;;5095709;28;20172;-74
2023/05/09 03:11:04;;;;;;;27.03;17.47;;;15.00;1.00;;;;;;5114002;28;20391;-73
2023/05/09 03:13:30;;;;;;;27.23;16.10;;;15.00;1.00;;;;;;5113973;28;20554;-74
2023/05/09 03:15:55;;;;;;;26.43;16.47;;;15.00;1.00;;;;;;5113905;28;20427;-74
2023/05/09 03:21:43;;;;;;;27.40;16.10;;;14.90;1.00;;;;;;5113357;28;20196;-84
2023/05/09 03:27:33;;;;;;;25.23;17.10;;;14.80;1.00;;;;;;5126328;27;20226;-82
2023/05/09 03:30:20;;;;;;;29.77;18.00;;;14.70;1.00;;;;;;5126236;27;20903;-82
2023/05/09 03:32:51;;;;;;;25.80;17.97;;;14.70;1.00;;;;;;5138478;27;20403;-83
2023/05/09 03:35:44;;;;;;;29.40;18.03;;;14.70;1.00;;;;;;5124673;27;20812;-83
2023/05/09 03:38:15;;;;;;;32.00;18.23;;;14.70;1.00;;;;;;5099320;28;20885;-83
2023/05/09 03:40:52;;;;;;;26.43;17.63;;;14.70;1.00;;;;;;5117279;28;20525;-83
2023/05/09 03:43:21;;;;;;;28.60;17.70;;;14.70;1.00;;;;;;5098932;28;20464;-84
2023/05/09 03:46:20;;;;;;;23.93;17.13;;;14.80;1.00;;;;;;5117267;27;20454;-83
2023/05/09 03:49:36;;;;;;;29.07;18.30;;;14.70;1.00;;;;;;5119665;27;20380;-83
2023/05/09 03:52:02;;;;;;;27.53;17.23;;;14.70;1.00;;;;;;5125826;27;20843;-84
2023/05/09 03:54:33;;;;;;;27.07;17.50;;;14.70;1.00;;;;;;5098784;28;20866;-83
2023/05/09 03:57:03;;;;;;;28.13;18.23;;;14.70;1.00;;;;;;5098721;28;20419;-83
2023/05/09 03:59:45;;;;;;;30.13;18.30;;;14.70;1.00;;;;;;5098602;28;20831;-83
2023/05/09 04:02:15;;;;;;;26.40;17.20;;;14.80;1.00;;;;;;5116970;28;20402;-83
2023/05/09 04:04:41;;;;;;;26.70;18.10;;;14.70;1.00;;;;;;5117052;28;20425;-83
2023/05/09 04:07:21;;;;;;;30.43;17.67;;;14.70;1.00;;;;;;5098595;28;20410;-83
2023/05/09 04:13:21;;;;;;;27.37;17.30;;;14.60;1.00;;;;;;5131606;27;20390;-84
2023/05/09 04:15:57;;;;;;;27.90;17.00;;;14.60;1.00;;;;;;5098558;28;20860;-83
2023/05/09 04:18:23;;;;;;;26.93;16.77;;;14.60;1.00;;;;;;5103965;27;20473;-85
2023/05/09 04:21:08;;;;;;;29.53;17.90;;;14.60;1.00;;;;;;5111650;27;20849;-84
2023/05/09 04:23:39;;;;;;;28.43;18.00;;;14.70;1.00;;;;;;5119441;27;20478;-84
2023/05/09 04:26:21;;;;;;;27.67;18.10;;;14.80;1.00;;;;;;5119014;27;20412;-84
2023/05/09 04:29:14;;;;;;;27.80;17.80;;;15.00;1.00;;;;;;5101124;28;20901;-84
2023/05/09 04:32:21;;;;;;;29.30;18.10;;;15.10;1.00;;;;;;5128385;27;20423;-83
2023/05/09 04:34:51;;;;;;;26.83;17.07;;;15.10;1.00;;;;;;5116577;28;20757;-83
2023/05/09 04:37:33;;;;;;;27.80;16.83;;;15.30;1.00;;;;;;5098208;28;20400;-84
2023/05/09 04:40:46;;;;;;;27.93;16.67;;;15.30;1.00;;;;;;5122007;27;20429;-84
2023/05/09 04:43:15;;;;;;;26.97;16.77;;;15.40;1.00;;;;;;5099067;27;20433;-83
2023/05/09 04:45:45;;;;;;;24.63;16.50;;;15.50;1.00;;;;;;5117719;27;20734;-72
2023/05/09 04:48:11;;;;;;;25.70;16.53;;;15.70;1.00;;;;;;5117180;27;20835;-72
2023/05/09 04:50:36;;;;;;;26.80;16.07;;;15.70;1.00;;;;;;5135149;27;20435;-73
2023/05/09 04:53:02;;;;;;;22.90;16.23;;;15.70;1.00;;;;;;5136691;27;20197;-73
2023/05/09 04:55:33;;;;;;;23.07;15.33;;;15.70;1.00;;;;;;5136571;27;20252;-73
2023/05/09 04:57:59;;;;;;;25.83;15.37;;;15.80;1.00;;;;;;5119229;27;20173;-72
2023/05/09 05:00:24;;;;;;;22.87;15.90;;;15.80;1.00;;;;;;5118644;27;20549;-72
2023/05/09 05:02:50;;;;;;;27.03;16.50;;;15.90;1.00;;;;;;5115592;28;20186;-72
2023/05/09 05:05:21;;;;;;;29.77;15.63;;;15.90;1.00;;;;;;5116514;28;20165;-74
2023/05/09 05:07:47;;;;;;;20.30;15.00;;;16.00;1.00;;;;;;5115762;28;20183;-72
2023/05/09 05:10:12;;;;;;;21.53;15.70;;;16.00;1.00;;;;;;5115695;28;20474;-74
2023/05/09 05:12:38;;;;;;;20.47;15.00;;;16.10;1.00;;;;;;5115687;28;20193;-72
2023/05/09 05:15:04;;;;;;;27.23;15.60;;;16.10;1.00;;;;;;5113527;27;20185;-72
2023/05/09 05:17:30;;;;;;;21.03;15.33;;;16.20;1.00;;;;;;5136373;27;20244;-73
2023/05/09 05:19:56;;;;;;;21.40;14.93;;;16.20;1.00;;;;;;5097638;28;20502;-72
2023/05/09 05:22:22;;;;;;;24.70;17.53;;;16.30;1.00;;;;;;5114845;27;20204;-72
2023/05/09 05:24:51;;;;;;;25.00;16.70;;;16.30;1.00;;;;;;5115162;28;20184;-72
2023/05/09 05:27:21;;;;;;;23.53;15.50;;;16.40;1.00;;;;;;5115440;27;20187;-72
2023/05/09 05:29:57;;;;;;;22.60;16.20;;;16.40;1.00;;;;;;5118517;27;20830;-73
2023/05/09 05:32:22;;;;;;;22.70;16.30;;;16.50;1.00;;;;;;5115242;28;20382;-72
2023/05/09 05:34:51;;;;;;;30.30;16.60;;;16.60;1.00;;;;;;5114970;28;20914;-79
2023/05/09 05:37:17;;;;;;;23.63;16.83;;;16.70;1.00;;;;;;5115289;27;20187;-75
2023/05/09 05:39:42;;;;;;;25.43;16.20;;;16.80;1.00;;;;;;5129599;27;20948;-75
2023/05/09 05:42:33;;;;;;;30.23;19.30;;;16.90;1.00;;;;;;5135192;27;20547;-79
2023/05/09 05:45:03;;;;;;;23.73;17.23;;;17.10;1.00;;;;;;5117220;27;20167;-79
2023/05/09 05:47:34;;;;;;;23.43;15.60;;;17.20;1.00;;;;;;5114362;28;20386;-75
2023/05/09 05:50:21;;;;;;;28.87;17.60;;;17.40;1.00;;;;;;5115030;27;20771;-79
2023/05/09 05:52:46;;;;;;;23.07;17.20;;;17.50;1.00;;;;;;5114508;28;20426;-79
2023/05/09 05:55:27;;;;;;;26.80;17.20;;;17.50;1.00;;;;;;5114803;28;20469;-79
2023/05/09 05:58:03;;;;;;;23.23;17.20;;;17.70;1.00;;;;;;5122363;27;20226;-79
2023/05/09 06:00:39;;;;;;;22.63;16.83;;;17.90;1.00;;;;;;5130757;27;20968;-79
2023/05/09 06:03:12;;;;;;;25.47;16.20;;;18.00;1.00;;;;;;5125448;27;20493;-79
2023/05/09 06:05:43;;;;;;;26.43;17.13;;;18.20;1.00;;;;;;5134448;27;20434;-79
2023/05/09 06:08:08;;;;;;;23.13;16.63;;;18.40;1.00;;;;;;5124189;27;20434;-79
2023/05/09 06:10:34;;;;;;;27.33;15.47;;;18.40;1.00;;;;;;5114048;28;20521;-76
2023/05/09 06:13:00;;;;;;;23.47;16.13;;;18.70;1.00;;;;;;5114165;28;20168;-75
2023/05/09 06:15:26;;;;;;;20.43;15.47;;;18.80;1.00;;;;;;5115596;27;20374;-75
2023/05/09 06:18:21;;;;;;;22.00;15.20;;;19.00;1.00;;;;;;5132337;27;20691;-79
2023/05/09 06:20:46;;;;;;;22.33;15.80;;;19.10;1.00;;;;;;5114250;28;20190;-75
2023/05/09 06:23:12;;;;;;;23.37;15.93;;;19.20;1.00;;;;;;5116403;27;20398;-75
2023/05/09 06:25:37;;;;;;;19.20;14.57;;;19.20;1.00;;;;;;5134672;27;20189;-75
2023/05/09 06:28:03;;;;;;;24.47;16.20;;;19.20;1.00;;;;;;5132725;27;20591;-79
2023/05/09 06:30:50;;;;;;;19.33;15.13;;;19.40;1.00;;;;;;5114181;28;20171;-79
2023/05/09 06:33:21;;;;;;;18.07;13.90;;;19.40;1.00;;;;;;5117211;28;20184;-79
2023/05/09 06:35:51;;;;;;;19.93;15.13;;;19.40;1.00;;;;;;5135172;27;20382;-75
2023/05/09 06:38:21;;;;;;;18.87;14.20;;;19.30;1.00;;;;;;5116478;27;20403;-75
2023/05/09 06:40:51;;;;;;;21.03;14.97;;;19.50;1.00;;;;;;5134586;27;20482;-75
2023/05/09 06:43:21;;;;;;;18.90;13.20;;;19.60;1.00;;;;;;5124468;28;20401;-79
2023/05/09 06:46:14;;;;;;;19.30;13.30;;;19.80;1.00;;;;;;5114007;28;20426;-80
2023/05/09 06:48:40;;;;;;;25.60;13.37;;;19.90;1.00;;;;;;5114237;28;20385;-79
2023/05/09 06:51:21;;;;;;;24.00;14.70;;;20.00;1.00;;;;;;5133633;28;20411;-79
2023/05/09 06:53:51;;;;;;;17.67;13.43;;;20.20;1.00;;;;;;5113942;28;20188;-79
2023/05/09 06:56:18;;;;;;;19.80;13.73;;;20.30;1.00;;;;;;5113953;28;20876;-75
2023/05/09 06:58:51;;;;;;;15.23;12.73;;;20.50;1.00;;;;;;5118883;27;20427;-79
2023/05/09 07:01:17;;;;;;;18.50;14.03;;;20.60;1.00;;;;;;5138838;27;20532;-75
2023/05/09 07:03:51;;;;;;;18.70;14.47;;;20.70;1.00;;;;;;5120394;27;20451;-75
2023/05/09 07:06:45;;;;;;;18.80;14.30;;;20.90;1.00;;;;;;5120708;27;20176;-79
2023/05/09 07:09:22;;;;;;;20.97;13.40;;;21.30;1.00;;;;;;5137503;27;20428;-79
2023/05/09 07:11:51;;;;;;;20.07;14.13;;;21.50;1.00;;;;;;5139203;27;20397;-79
2023/05/09 07:14:21;;;;;;;19.50;14.13;;;21.70;1.00;;;;;;5138921;27;20383;-79
2023/05/09 07:17:14;;;;;;;19.27;13.10;;;22.00;1.00;;;;;;5119958;27;20482;-79
2023/05/09 07:19:40;;;;;;;19.80;12.90;;;22.30;1.00;;;;;;5137193;27;20517;-79
2023/05/09 07:22:09;;;;;;;19.73;12.73;;;22.50;1.00;;;;;;5119965;27;20549;-75
2023/05/09 07:24:34;;;;;;;13.27;11.20;;;22.40;1.00;;;;;;5137645;27;20182;-75
2023/05/09 07:27:09;;;;;;;17.87;11.73;;;22.40;1.00;;;;;;5138364;27;20933;-80
2023/05/09 07:29:51;;;;;;;21.23;12.27;;;22.30;1.00;;;;;;5136608;27;20509;-79
2023/05/09 07:32:21;;;;;;;15.27;11.63;;;22.30;1.00;;;;;;5137923;27;20574;-79
2023/05/09 07:34:51;;;;;;;14.67;11.40;;;22.30;1.00;;;;;;5138541;27;20395;-79
2023/05/09 07:37:21;;;;;;;18.30;12.20;;;22.30;1.00;;;;;;5137973;27;20433;-79
2023/05/09 07:39:47;;;;;;;14.20;10.27;;;22.20;1.00;;;;;;5136263;27;20446;-75
2023/05/09 07:42:13;;;;;;;19.37;11.17;;;22.30;1.00;;;;;;5123613;27;20955;-75
2023/05/09 07:44:39;;;;;;;16.23;12.20;;;22.20;1.00;;;;;;5129984;27;20614;-75
2023/05/09 07:47:05;;;;;;;14.97;11.30;;;22.10;1.00;;;;;;5137960;27;20484;-75
2023/05/09 07:49:31;;;;;;;17.57;10.90;;;22.10;1.00;;;;;;5128163;27;20182;-75
2023/05/09 07:51:57;;;;;;;18.00;11.80;;;22.00;1.00;;;;;;5117479;28;20462;-79
2023/05/09 07:54:23;;;;;;;13.47;10.87;;;21.90;1.00;;;;;;5126042;27;20462;-76
2023/05/09 07:56:51;;;;;;;16.77;10.73;;;22.00;1.00;;;;;;5137692;27;20424;-79
2023/05/09 07:59:18;;;;;;;15.47;12.20;;;22.00;1.00;;;;;;5136333;27;20159;-75
2023/05/09 08:01:44;;;;;;;16.70;11.67;;;22.00;1.00;;;;;;5137493;27;20462;-75
2023/05/09 08:04:10;;;;;;;18.27;11.00;;;21.80;1.00;;;;;;5119181;27;20412;-75
2023/05/09 08:06:45;;;;;;;17.70;11.40;;;21.70;1.00;;;;;;5138022;27;20394;-75
2023/05/09 08:09:21;;;;;;;18.20;10.80;;;21.60;1.00;;;;;;5137179;27;20398;-75
2023/05/09 08:11:51;;;;;;;14.13;11.23;;;21.50;1.00;;;;;;5116908;28;20392;-75
2023/05/09 08:14:17;;;;;;;19.00;12.33;;;21.50;1.00;;;;;;5117049;28;20419;-75
2023/05/09 08:16:42;;;;;;;14.67;11.77;;;21.30;1.00;;;;;;5116691;28;20874;-75
2023/05/09 08:19:08;;;;;;;19.90;12.20;;;21.30;1.00;;;;;;5116792;28;20188;-75
2023/05/09 08:24:56;;;;;;;14.57;11.57;;;21.40;1.00;;;;;;5122478;27;20450;-79
2023/05/09 08:27:27;;;;;;;15.07;12.00;;;21.50;1.00;;;;;;5137258;27;20414;-79
2023/05/09 08:30:45;;;;;;;16.97;11.80;;;21.60;1.00;;;;;;5136982;27;20164;-79
2023/05/09 08:33:10;;;;;;;18.50;11.53;;;21.70;1.00;;;;;;5136999;27;20383;-81
2023/05/09 08:36:03;;;;;;;15.03;11.70;;;21.70;1.00;;;;;;5136159;27;20433;-79
2023/05/09 08:38:35;;;;;;;16.20;12.40;;;21.70;1.00;;;;;;5137064;27;20212;-79
2023/05/09 08:41:01;;;;;;;15.00;12.00;;;21.80;1.00;;;;;;5136977;27;20767;-75
2023/05/09 08:43:39;;;;;;;16.70;12.40;;;22.00;1.00;;;;;;5136986;27;20724;-79
2023/05/09 08:46:16;;;;;;;18.50;12.60;;;21.90;1.00;;;;;;5136598;27;20379;-79
2023/05/09 08:48:52;;;;;;;16.60;11.37;;;22.10;1.00;;;;;;5136645;27;20824;-79
2023/05/09 08:51:35;;;;;;;15.17;12.00;;;22.60;1.00;;;;;;5135604;27;20746;-79
2023/05/09 08:54:01;;;;;;;20.77;11.77;;;22.90;1.00;;;;;;5136515;27;20405;-75
2023/05/09 08:56:57;;;;;;;14.70;11.33;;;23.10;1.00;;;;;;5136838;27;20723;-79
2023/05/09 08:59:41;;;;;;;15.33;11.90;;;23.20;1.00;;;;;;5136438;27;20881;-79
2023/05/09 09:02:34;;;;;;;15.00;11.50;;;23.30;1.00;;;;;;5134228;27;20461;-79
2023/05/09 09:05:03;;;;;;;21.97;12.10;;;23.20;1.00;;;;;;5136287;27;20470;-79
2023/05/09 09:07:45;;;;;;;11.47;9.43;;;23.10;1.00;;;;;;5136712;27;20413;-79
2023/05/09 09:10:12;;;;;;;16.30;11.27;;;22.90;1.00;;;;;;5131198;27;20470;-75
2023/05/09 09:13:03;;;;;;;16.90;10.90;;;22.90;1.00;;;;;;5115767;28;20914;-78
2023/05/09 09:15:41;;;;;;;12.67;9.90;;;22.40;1.00;;;;;;5115640;28;20472;-79
2023/05/09 09:18:10;;;;;;;12.77;10.00;;;22.50;1.00;;;;;;5115650;28;20476;-75
2023/05/09 09:20:58;;;;;;;14.57;9.80;;;22.70;1.00;;;;;;5115110;28;20461;-75
2023/05/09 09:23:25;;;;;;;12.50;9.73;;;22.80;1.00;;;;;;5128212;27;20440;-74
2023/05/09 09:26:01;;;;;;;14.67;10.90;;;23.10;1.00;;;;;;5136070;27;20398;-75
2023/05/09 09:28:27;;;;;;;19.93;10.17;;;23.50;1.00;;;;;;5135956;27;20755;-74
2023/05/09 09:30:53;;;;;;;12.73;10.10;;;23.60;1.00;;;;;;5134698;27;20524;-75
2023/05/09 09:33:23;;;;;;;18.10;11.70;;;23.40;1.00;;;;;;5134584;27;20799;-79
2023/05/09 09:35:53;;;;;;;15.03;10.80;;;23.00;1.00;;;;;;5136263;27;20242;-79
2023/05/09 09:38:21;;;;;;;15.27;10.67;;;22.70;1.00;;;;;;5135958;27;20421;-75
2023/05/09 09:40:57;;;;;;;21.77;11.63;;;22.60;1.00;;;;;;5136068;27;20448;-75
2023/05/09 09:43:46;;;;;;;23.23;11.27;;;22.30;1.00;;;;;;5134508;27;20436;-79
2023/05/09 09:46:21;;;;;;;15.70;10.60;;;22.20;1.00;;;;;;5135505;27;20735;-79
2023/05/09 09:49:10;;;;;;;13.30;9.87;;;22.30;1.00;;;;;;5135469;27;20383;-79
2023/05/09 09:51:40;;;;;;;12.87;10.53;;;22.30;1.00;;;;;;5111308;28;21048;-75
2023/05/09 09:54:06;;;;;;;16.23;10.70;;;22.20;1.00;;;;;;5114304;28;20458;-75
2023/05/09 09:56:46;;;;;;;22.33;11.90;;;22.20;1.00;;;;;;5114794;28;20419;-75
2023/05/09 09:59:14;;;;;;;15.43;11.40;;;22.00;1.00;;;;;;5127373;27;20518;-75
2023/05/09 10:02:02;;;;;;;17.57;10.33;;;22.20;1.00;;;;;;5135226;27;20494;-74
2023/05/09 10:04:35;;;;;;;16.20;11.00;;;22.50;1.00;;;;;;5096683;28;20426;-79
2023/05/09 10:07:09;;;;;;;15.50;11.00;;;22.80;1.00;;;;;;5106556;28;20382;-79
2023/05/09 10:09:39;;;;;;;13.10;10.57;;;22.80;1.00;;;;;;5128431;27;20510;-80
2023/05/09 10:12:07;;;;;;;13.93;10.70;;;23.00;1.00;;;;;;5116590;27;20400;-79
2023/05/09 10:14:47;;;;;;;12.90;11.10;;;23.00;1.00;;;;;;5134511;27;20423;-79
2023/05/09 10:17:21;;;;;;;13.97;11.40;;;23.00;1.00;;;;;;5135255;27;20772;-79
2023/05/09 10:20:11;;;;;;;14.37;11.20;;;23.00;1.00;;;;;;5134726;27;20420;-79
2023/05/09 10:22:39;;;;;;;12.00;10.00;;;23.00;1.00;;;;;;5116778;27;20449;-75
2023/05/09 10:25:20;;;;;;;14.50;10.27;;;23.10;1.00;;;;;;5121319;27;20436;-79
2023/05/09 10:27:47;;;;;;;15.10;10.37;;;23.30;1.00;;;;;;5114386;28;20437;-76
2023/05/09 10:30:16;;;;;;;12.10;9.03;;;23.50;1.00;;;;;;5114301;28;20414;-75
2023/05/09 10:32:52;;;;;;;15.60;9.57;;;23.70;1.00;;;;;;5114370;28;20426;-75
2023/05/09 10:35:25;;;;;;;15.57;10.47;;;23.30;1.00;;;;;;5108528;27;20913;-75
2023/05/09 10:37:55;;;;;;;14.90;9.43;;;23.20;1.00;;;;;;5135308;27;20446;-74
2023/05/09 10:40:21;;;;;;;15.07;10.90;;;23.30;1.00;;;;;;5116298;27;20973;-75
2023/05/09 10:43:04;;;;;;;11.87;10.17;;;23.20;1.00;;;;;;5134767;27;20480;-79
2023/05/09 10:45:31;;;;;;;13.53;9.50;;;23.20;1.00;;;;;;5132461;28;20432;-75
2023/05/09 10:47:57;;;;;;;11.97;9.23;;;23.30;1.00;;;;;;5116254;28;20968;-75
2023/05/09 10:50:23;;;;;;;14.23;9.53;;;23.60;1.00;;;;;;5114494;28;20479;-75
2023/05/09 10:53:07;;;;;;;12.67;10.40;;;23.80;1.00;;;;;;5134618;28;20539;-75
2023/05/09 10:55:51;;;;;;;14.17;10.40;;;24.10;1.00;;;;;;5133706;28;20981;-75
2023/05/09 10:58:32;;;;;;;10.80;9.27;;;24.00;1.00;;;;;;5116381;28;20420;-75
2023/05/09 11:01:00;;;;;;;10.30;8.70;;;24.40;1.00;;;;;;5134548;28;20448;-75
2023/05/09 11:03:27;;;;;;;14.60;10.23;;;24.70;1.00;;;;;;5116078;28;20414;-75
2023/05/09 11:05:57;;;;;;;11.60;10.27;;;25.10;1.00;;;;;;5118159;28;20527;-79
2023/05/09 11:08:26;;;;;;;11.93;9.40;;;25.30;1.00;;;;;;5134877;28;20428;-75
2023/05/09 11:10:54;;;;;;;9.43;8.03;;;25.70;1.00;;;;;;5134348;28;20776;-79
2023/05/09 11:13:23;;;;;;;15.23;9.87;;;25.60;1.00;;;;;;5134619;28;20473;-74
2023/05/09 11:16:01;;;;;;;9.30;8.33;;;24.70;1.00;;;;;;5117739;28;20444;-74
2023/05/09 11:18:27;;;;;;;12.80;9.33;;;25.30;1.00;;;;;;5123374;28;20452;-75
2023/05/09 11:20:54;;;;;;;12.37;8.53;;;25.60;1.00;;;;;;5113838;28;20462;-75
2023/05/09 11:23:24;;;;;;;12.40;8.20;;;25.70;1.00;;;;;;5114278;28;20406;-75
2023/05/09 11:25:50;;;;;;;13.33;9.03;;;25.80;1.00;;;;;;5095338;28;20438;-74
2023/05/09 11:28:32;;;;;;;13.07;8.77;;;25.70;1.00;;;;;;5123392;28;20440;-79
2023/05/09 11:31:15;;;;;;;17.10;10.00;;;25.40;1.00;;;;;;5133717;28;20928;-79
2023/05/09 11:34:05;;;;;;;17.83;8.93;;;25.30;1.00;;;;;;5120426;28;20433;-79
2023/05/09 11:36:46;;;;;;;17.27;9.80;;;24.90;1.00;;;;;;5122337;28;20439;-79
2023/05/09 11:39:23;;;;;;;17.13;10.00;;;24.40;1.00;;;;;;5114068;28;20440;-75
2023/05/09 11:41:49;;;;;;;12.83;9.70;;;24.40;1.00;;;;;;5125754;28;20469;-74
2023/05/09 11:44:20;;;;;;;9.90;8.90;;;24.30;1.00;;;;;;5134510;27;20898;-75
2023/05/09 11:46:47;;;;;;;11.53;8.50;;;24.20;1.00;;;;;;5135202;27;20271;-79
2023/05/09 11:49:18;;;;;;;15.67;9.10;;;24.10;1.00;;;;;;5128073;27;20433;-79
2023/05/09 11:51:52;;;;;;;9.60;8.00;;;23.80;1.00;;;;;;5132714;27;20446;-77
2023/05/09 11:54:17;;;;;;;10.20;8.67;;;23.80;1.00;;;;;;5124618;27;20459;-74
2023/05/09 11:56:44;;;;;;;9.50;8.23;;;23.70;1.00;;;;;;5137595;27;20489;-75
2023/05/09 11:59:12;;;;;;;12.27;9.10;;;23.70;1.00;;;;;;5135523;27;20268;-75
2023/05/09 12:02:03;;;;;;;15.67;10.30;;;23.70;1.00;;;;;;5137729;27;20532;-80
2023/05/09 12:04:35;;;;;;;12.87;9.57;;;23.70;1.00;;;;;;5131181;27;20430;-79
2023/05/09 12:07:03;;;;;;;11.47;8.80;;;23.80;1.00;;;;;;5117026;28;20430;-77
2023/05/09 12:09:40;;;;;;;10.87;8.50;;;23.90;1.00;;;;;;5116570;28;20413;-75
2023/05/09 12:12:51;;;;;;;9.93;8.97;;;23.90;1.00;;;;;;5117029;28;20402;-80
2023/05/09 12:15:22;;;;;;;13.77;9.20;;;23.70;1.00;;;;;;5129167;27;20488;-75
2023/05/09 12:18:01;;;;;;;12.73;8.40;;;23.60;1.00;;;;;;5131546;27;20909;-74
2023/05/09 12:20:38;;;;;;;15.30;8.97;;;23.50;1.00;;;;;;5116385;28;20500;-76
2023/05/09 12:23:03;;;;;;;12.23;8.83;;;23.40;1.00;;;;;;5125105;27;20950;-80
2023/05/09 12:25:53;;;;;;;11.00;9.00;;;23.40;1.00;;;;;;5136030;27;20438;-80
2023/05/09 12:28:23;;;;;;;14.50;9.43;;;23.30;1.00;;;;;;5137069;27;20606;-82
2023/05/09 12:30:50;;;;;;;10.90;8.87;;;23.20;1.00;;;;;;5136954;27;20760;-75
2023/05/09 12:33:16;;;;;;;12.67;9.37;;;23.10;1.00;;;;;;5118216;27;20528;-80
2023/05/09 12:36:12;;;;;;;26.53;9.87;;;22.90;1.00;;;;;;5136871;27;20500;-80
2023/05/09 12:38:38;;;;;;;13.60;9.83;;;22.90;1.00;;;;;;5034062;28;20432;-76
2023/05/09 12:41:10;;;;;;;14.83;9.67;;;22.80;1.00;;;;;;5017015;28;20834;-75
2023/05/09 12:43:40;;;;;;;10.70;9.57;;;22.70;1.00;;;;;;5033476;28;20409;-75
2023/05/09 12:46:06;;;;;;;14.77;11.37;;;22.60;1.00;;;;;;5030285;28;21002;-79
2023/05/09 12:48:37;;;;;;;15.57;12.20;;;22.50;1.00;;;;;;5033030;28;20503;-74
2023/05/09 12:51:05;;;;;;;17.33;12.13;;;22.40;1.00;;;;;;5033271;28;20420;-80
2023/05/09 12:53:31;;;;;;;21.67;13.67;;;22.30;1.00;;;;;;5032938;28;20845;-74
2023/05/09 12:56:10;;;;;;;17.03;13.03;;;22.20;1.00;;;;;;5030762;28;20459;-74
2023/05/09 12:58:36;;;;;;;21.30;13.40;;;22.10;1.00;;;;;;5019125;28;20432;-75
2023/05/09 13:01:08;;;;;;;22.37;12.60;;;22.20;1.00;;;;;;5025919;28;20790;-74
2023/05/09 13:04:00;;;;;;;27.20;14.50;;;22.40;1.00;;;;;;5010117;28;20940;-75
2023/05/09 13:06:25;;;;;;;15.60;12.00;;;22.70;1.00;;;;;;5049963;28;20872;-74
2023/05/09 13:09:04;;;;;;;20.73;13.40;;;22.90;1.00;;;;;;5053271;28;20448;-81
2023/05/09 13:11:34;;;;;;;15.33;11.97;;;23.00;1.00;;;;;;5052768;28;20268;-82
2023/05/09 13:14:02;;;;;;;23.00;13.10;;;23.10;1.00;;;;;;5052551;28;20444;-81
2023/05/09 13:16:34;;;;;;;18.53;13.23;;;23.30;1.00;;;;;;5115444;28;20394;-81
2023/05/09 13:19:00;;;;;;;18.40;13.30;;;23.30;1.00;;;;;;5114307;27;20444;-74
2023/05/09 13:21:26;;;;;;;19.17;12.60;;;23.60;1.00;;;;;;5121171;27;20950;-74
2023/05/09 13:24:04;;;;;;;21.30;12.60;;;23.70;1.00;;;;;;5126110;27;20434;-81
2023/05/09 13:26:30;;;;;;;16.67;13.03;;;23.90;1.00;;;;;;5114934;28;20243;-75